Time;durP1;ratioP1;P1;durP2;ratioP2;P2;SDS_P1;SDS_P2;PMS_P1;PMS_P2;Temp;Humidity;BMP_temperature;BMP_pressure;BME280_temperature;BME280_humidity;BME280_pressure;Samples;Min_cycle;Max_cycle;Signal;HPM_P1;HPM_P2
2022/05/17 00:02:25;;;;;;;12.88;4.38;;;23.20;86.00;;;;;;5071150;28;20497;-69
2022/05/17 00:04:53;;;;;;;9.10;4.32;;;23.20;85.90;;;;;;5041687;28;20052;-69
2022/05/17 00:07:20;;;;;;;7.40;4.30;;;23.20;85.80;;;;;;5058751;28;20565;-71
2022/05/17 00:09:48;;;;;;;9.38;5.35;;;23.20;85.60;;;;;;5058198;28;20138;-73
2022/05/17 00:12:15;;;;;;;9.95;5.03;;;23.20;85.90;;;;;;5073417;28;20062;-72
2022/05/17 00:14:43;;;;;;;9.70;5.57;;;23.20;86.40;;;;;;5041993;28;20095;-72
2022/05/17 00:17:10;;;;;;;9.82;4.55;;;23.10;86.50;;;;;;5058389;28;20316;-72
2022/05/17 00:19:38;;;;;;;9.30;5.28;;;23.10;86.50;;;;;;5074819;28;20044;-71
2022/05/17 00:22:07;;;;;;;10.02;5.35;;;23.10;86.60;;;;;;5075125;28;20480;-72
2022/05/17 00:24:35;;;;;;;7.82;5.07;;;23.10;86.50;;;;;;5041660;28;20055;-72
2022/05/17 00:27:03;;;;;;;8.05;4.40;;;23.10;86.50;;;;;;5058145;28;20040;-72
2022/05/17 00:29:32;;;;;;;7.80;4.13;;;23.10;86.40;;;;;;5074551;28;20097;-72
2022/05/17 00:32:08;;;;;;;8.07;5.32;;;23.10;86.20;;;;;;5075054;28;20494;-72
2022/05/17 00:34:36;;;;;;;8.68;4.82;;;23.10;86.10;;;;;;5058401;28;20059;-72
2022/05/17 00:37:04;;;;;;;9.05;4.68;;;23.10;86.10;;;;;;5074722;28;20102;-72
2022/05/17 00:39:32;;;;;;;10.85;5.13;;;23.10;86.20;;;;;;5074421;28;20105;-72
2022/05/17 00:42:00;;;;;;;6.35;4.75;;;23.00;86.60;;;;;;5058209;28;20054;-72
2022/05/17 00:44:42;;;;;;;9.20;4.93;;;23.00;87.00;;;;;;5074686;28;20071;-72
2022/05/17 00:47:18;;;;;;;11.32;6.13;;;22.90;87.20;;;;;;5058203;28;20089;-72
2022/05/17 00:49:56;;;;;;;11.70;6.00;;;22.90;87.40;;;;;;5073842;28;20089;-72
2022/05/17 00:52:29;;;;;;;13.82;5.75;;;22.80;87.30;;;;;;5071881;28;20044;-71
2022/05/17 00:55:03;;;;;;;10.93;6.72;;;22.80;87.30;;;;;;5049913;28;20048;-72
2022/05/17 00:57:38;;;;;;;10.55;6.22;;;22.80;87.90;;;;;;5057615;28;20047;-72
2022/05/17 01:00:12;;;;;;;16.38;7.22;;;22.70;88.30;;;;;;5057379;28;20063;-72
2022/05/17 01:02:44;;;;;;;8.93;6.43;;;22.70;88.60;;;;;;5057241;28;20146;-72
2022/05/17 01:05:14;;;;;;;9.13;6.30;;;22.70;88.80;;;;;;5091929;28;20080;-72
2022/05/17 01:07:43;;;;;;;12.45;6.30;;;22.60;88.90;;;;;;5074135;28;20113;-72
2022/05/17 01:10:11;;;;;;;8.18;5.50;;;22.60;88.80;;;;;;5072074;28;20626;-73
2022/05/17 01:12:40;;;;;;;11.00;5.80;;;22.60;88.60;;;;;;5041114;28;20522;-72
2022/05/17 01:15:11;;;;;;;11.40;5.63;;;22.60;88.20;;;;;;5040816;28;20455;-72
2022/05/17 01:17:40;;;;;;;10.48;5.13;;;22.60;88.10;;;;;;5056696;28;20402;-73
2022/05/17 01:20:13;;;;;;;8.68;5.00;;;22.60;87.90;;;;;;5073556;28;20044;-72
2022/05/17 01:22:41;;;;;;;11.98;5.20;;;22.50;87.10;;;;;;5039239;28;20056;-72
2022/05/17 01:25:08;;;;;;;9.80;4.57;;;22.50;87.00;;;;;;5072408;28;20081;-72
2022/05/17 01:28:01;;;;;;;6.38;4.97;;;22.50;86.60;;;;;;5056856;28;20047;-71
2022/05/17 01:30:30;;;;;;;6.72;4.40;;;22.50;86.50;;;;;;5057383;28;20106;-72
2022/05/17 01:32:58;;;;;;;7.68;4.40;;;22.50;86.60;;;;;;5056425;28;20146;-72
2022/05/17 01:35:25;;;;;;;8.15;4.20;;;22.40;86.70;;;;;;5090386;28;20151;-72
2022/05/17 01:37:56;;;;;;;7.68;4.40;;;22.40;87.10;;;;;;5072537;28;20135;-72
2022/05/17 01:40:25;;;;;;;9.52;4.03;;;22.40;87.60;;;;;;5073413;28;20135;-72
2022/05/17 01:42:53;;;;;;;7.13;4.13;;;22.30;87.80;;;;;;5073332;28;20043;-72
2022/05/17 01:45:20;;;;;;;6.95;4.70;;;22.30;88.60;;;;;;5056905;28;20144;-72
2022/05/17 01:47:48;;;;;;;7.47;4.13;;;22.20;89.60;;;;;;5056503;28;20536;-71
2022/05/17 01:50:16;;;;;;;6.85;4.03;;;22.20;90.30;;;;;;5072782;28;20046;-72
2022/05/17 01:52:44;;;;;;;5.88;4.28;;;22.10;90.90;;;;;;5073415;28;20079;-72
2022/05/17 01:55:12;;;;;;;9.07;4.97;;;22.10;91.70;;;;;;5055801;28;20387;-71
2022/05/17 01:57:40;;;;;;;11.52;5.32;;;22.10;92.30;;;;;;5055912;28;20159;-72
2022/05/17 02:00:11;;;;;;;10.35;5.40;;;22.10;93.20;;;;;;5055981;28;20084;-72
2022/05/17 02:02:39;;;;;;;10.18;5.85;;;22.00;93.90;;;;;;5056230;28;20047;-72
2022/05/17 02:05:08;;;;;;;13.93;5.22;;;22.00;94.30;;;;;;5069339;28;20052;-72
2022/05/17 02:07:35;;;;;;;13.90;6.13;;;22.00;94.80;;;;;;5051629;28;20051;-72
2022/05/17 02:10:05;;;;;;;9.13;5.93;;;22.00;95.20;;;;;;5073263;28;20494;-71
2022/05/17 02:12:32;;;;;;;12.05;7.32;;;21.90;95.60;;;;;;5091103;28;20492;-72
2022/05/17 02:15:00;;;;;;;12.35;6.40;;;22.00;96.10;;;;;;5072307;28;20051;-72
2022/05/17 02:17:28;;;;;;;11.93;6.43;;;22.00;96.40;;;;;;5072569;28;20438;-72
2022/05/17 02:19:56;;;;;;;11.10;6.15;;;21.90;96.50;;;;;;5073148;28;20036;-72
2022/05/17 02:22:24;;;;;;;12.32;6.93;;;21.90;96.50;;;;;;5072904;28;20047;-72
2022/05/17 02:24:52;;;;;;;13.85;7.93;;;21.90;96.70;;;;;;5056551;28;20048;-72
2022/05/17 02:27:19;;;;;;;9.60;6.50;;;21.80;97.00;;;;;;5090310;28;20054;-71
2022/05/17 02:29:47;;;;;;;11.38;6.75;;;21.80;97.30;;;;;;5072505;28;20052;-72
2022/05/17 02:32:15;;;;;;;13.20;7.43;;;21.80;97.50;;;;;;5072326;28;20055;-72
2022/05/17 02:34:43;;;;;;;20.65;9.60;;;21.70;97.50;;;;;;5090541;28;20040;-72
2022/05/17 02:37:11;;;;;;;11.85;7.20;;;21.70;97.70;;;;;;5072277;28;20040;-72
2022/05/17 02:39:38;;;;;;;13.85;7.28;;;21.70;98.00;;;;;;5055980;28;20052;-72
2022/05/17 02:42:06;;;;;;;11.68;7.35;;;21.70;98.40;;;;;;5072435;28;20114;-71
2022/05/17 02:44:34;;;;;;;12.73;6.75;;;21.80;98.60;;;;;;5072790;28;20044;-71
2022/05/17 02:47:02;;;;;;;18.33;7.90;;;21.70;98.90;;;;;;5072225;28;20047;-71
2022/05/17 02:49:29;;;;;;;16.60;7.70;;;21.70;99.20;;;;;;5072732;28;20095;-71
2022/05/17 02:52:01;;;;;;;12.13;6.78;;;21.70;99.20;;;;;;5055998;28;20061;-71
2022/05/17 02:54:29;;;;;;;11.88;7.25;;;21.70;99.20;;;;;;5069762;28;20052;-71
2022/05/17 02:56:56;;;;;;;11.25;7.55;;;21.70;99.40;;;;;;5072455;28;20046;-72
2022/05/17 02:59:24;;;;;;;9.00;6.47;;;21.60;99.50;;;;;;5055613;28;20097;-71
2022/05/17 03:01:51;;;;;;;14.07;6.75;;;21.70;99.60;;;;;;5065026;28;20058;-72
2022/05/17 03:04:19;;;;;;;11.63;7.20;;;21.60;99.60;;;;;;5037182;28;20044;-72
2022/05/17 03:06:47;;;;;;;11.80;7.45;;;21.60;99.70;;;;;;5019018;28;20056;-71
2022/05/17 03:09:15;;;;;;;10.02;6.90;;;21.60;99.70;;;;;;5035667;28;20055;-72
2022/05/17 03:11:43;;;;;;;10.85;6.45;;;21.60;99.90;;;;;;5052189;28;20056;-72
2022/05/17 03:14:13;;;;;;;11.25;7.40;;;21.70;99.90;;;;;;5070211;28;20047;-72
2022/05/17 03:16:41;;;;;;;9.73;6.22;;;21.60;99.90;;;;;;5035747;28;20067;-72
2022/05/17 03:19:10;;;;;;;11.00;6.57;;;21.60;99.90;;;;;;5052195;28;20067;-73
2022/05/17 03:21:37;;;;;;;12.23;6.93;;;21.50;99.90;;;;;;5035158;28;20044;-72
2022/05/17 03:24:06;;;;;;;11.32;6.72;;;21.50;99.90;;;;;;5035959;28;20044;-72
2022/05/17 03:26:40;;;;;;;12.32;7.03;;;21.50;99.90;;;;;;5020018;28;20523;-72
2022/05/17 03:29:08;;;;;;;10.45;6.90;;;21.50;99.90;;;;;;5051834;28;20052;-72
2022/05/17 03:31:36;;;;;;;9.82;6.60;;;21.50;99.90;;;;;;5051673;28;20037;-72
2022/05/17 03:34:04;;;;;;;10.50;7.13;;;21.50;99.90;;;;;;5069752;28;20052;-72
2022/05/17 03:36:31;;;;;;;9.30;5.82;;;21.50;99.90;;;;;;5035177;28;20058;-72
2022/05/17 03:38:59;;;;;;;7.72;5.22;;;21.40;99.90;;;;;;5035629;28;20086;-72
2022/05/17 03:41:26;;;;;;;9.02;5.82;;;21.50;99.90;;;;;;5047025;28;20486;-71
2022/05/17 03:43:54;;;;;;;10.02;5.35;;;21.50;99.90;;;;;;5035371;28;20049;-72
2022/05/17 03:46:22;;;;;;;8.70;5.03;;;21.50;99.90;;;;;;5068188;28;20058;-72
2022/05/17 03:48:49;;;;;;;14.98;6.20;;;21.60;99.90;;;;;;5035786;28;20121;-71
2022/05/17 03:51:19;;;;;;;8.18;5.32;;;21.60;99.90;;;;;;5055490;28;20040;-72
2022/05/17 03:53:48;;;;;;;10.25;5.57;;;21.60;99.90;;;;;;5054753;28;20094;-72
2022/05/17 03:56:16;;;;;;;10.68;5.88;;;21.70;99.90;;;;;;5055075;28;20082;-72
2022/05/17 03:58:44;;;;;;;9.90;6.07;;;21.70;99.90;;;;;;5038440;28;20079;-72
2022/05/17 04:01:13;;;;;;;10.07;6.50;;;21.80;99.90;;;;;;5055019;28;20049;-72
2022/05/17 04:03:43;;;;;;;9.90;5.90;;;21.90;99.90;;;;;;5054227;28;20505;-71
2022/05/17 04:06:10;;;;;;;7.53;5.40;;;21.90;99.90;;;;;;5071975;28;20368;-71
2022/05/17 04:08:38;;;;;;;11.85;6.60;;;21.90;99.90;;;;;;5055196;28;20044;-72
2022/05/17 04:11:07;;;;;;;12.82;7.13;;;22.10;99.90;;;;;;5055612;28;20158;-71
2022/05/17 04:13:35;;;;;;;8.30;5.82;;;22.10;99.90;;;;;;5054784;28;20182;-72
2022/05/17 04:16:03;;;;;;;11.75;6.40;;;22.20;99.90;;;;;;5072847;28;20049;-71
2022/05/17 04:18:30;;;;;;;9.05;6.18;;;22.40;99.90;;;;;;5054993;28;20402;-72
2022/05/17 04:21:03;;;;;;;10.30;6.70;;;22.50;99.90;;;;;;5037915;28;20414;-71
2022/05/17 04:23:31;;;;;;;10.88;5.95;;;22.50;99.90;;;;;;5038060;28;20068;-71
2022/05/17 04:25:59;;;;;;;9.45;5.93;;;22.60;99.90;;;;;;5072822;28;20079;-71
2022/05/17 04:28:26;;;;;;;9.35;5.45;;;22.70;99.90;;;;;;5055237;28;20086;-72
2022/05/17 04:30:54;;;;;;;7.13;5.00;;;22.80;99.90;;;;;;5055072;28;20123;-72
2022/05/17 04:33:22;;;;;;;8.88;5.38;;;23.00;99.90;;;;;;5037912;28;20117;-70
2022/05/17 04:35:50;;;;;;;26.33;8.60;;;23.10;99.80;;;;;;5052430;28;20124;-71
2022/05/17 04:38:18;;;;;;;14.18;6.35;;;23.10;99.70;;;;;;5072177;28;20148;-71
2022/05/17 04:40:46;;;;;;;9.88;6.28;;;23.20;99.60;;;;;;5054591;28;20403;-71
2022/05/17 04:43:13;;;;;;;12.65;5.90;;;23.40;99.50;;;;;;5054193;28;20052;-73
2022/05/17 04:45:44;;;;;;;6.82;5.13;;;23.50;99.30;;;;;;5037043;28;20236;-72
2022/05/17 04:48:12;;;;;;;7.07;5.43;;;23.60;99.10;;;;;;5037632;28;20510;-71
2022/05/17 04:50:40;;;;;;;8.18;5.43;;;23.70;98.90;;;;;;5054596;28;20048;-73
2022/05/17 04:53:07;;;;;;;10.15;5.80;;;23.80;98.60;;;;;;5071088;28;20051;-71
2022/05/17 04:55:35;;;;;;;10.23;5.93;;;23.90;98.60;;;;;;5038171;28;20130;-71
2022/05/17 04:58:03;;;;;;;9.98;5.15;;;24.10;98.30;;;;;;5053732;28;20482;-72
2022/05/17 05:00:30;;;;;;;9.18;4.78;;;24.20;98.00;;;;;;5053079;28;20041;-72
2022/05/17 05:02:58;;;;;;;10.25;5.03;;;24.30;97.80;;;;;;5054232;28;20056;-72
2022/05/17 05:05:29;;;;;;;11.80;5.10;;;24.40;97.60;;;;;;5053620;28;20048;-73
2022/05/17 05:07:57;;;;;;;8.75;5.05;;;24.50;97.50;;;;;;5054252;28;20131;-72
2022/05/17 05:10:25;;;;;;;8.55;5.05;;;24.70;97.30;;;;;;5037363;28;20094;-71
2022/05/17 05:12:52;;;;;;;7.53;4.70;;;24.80;96.80;;;;;;5054195;28;20383;-72
2022/05/17 05:15:20;;;;;;;11.38;5.85;;;25.00;96.50;;;;;;5037532;28;20110;-72
2022/05/17 05:17:48;;;;;;;9.25;5.85;;;25.10;95.90;;;;;;5053524;28;20135;-72
2022/05/17 05:20:16;;;;;;;11.10;5.03;;;25.30;95.60;;;;;;5053458;28;20052;-72
2022/05/17 05:22:44;;;;;;;7.03;4.72;;;25.40;95.30;;;;;;5053756;28;20057;-72
2022/05/17 05:25:14;;;;;;;9.02;6.15;;;25.50;95.10;;;;;;5037329;28;20491;-71
2022/05/17 05:27:43;;;;;;;13.95;5.13;;;25.60;94.60;;;;;;5053749;28;20089;-72
2022/05/17 05:30:13;;;;;;;7.43;4.93;;;25.80;93.90;;;;;;5053514;28;20052;-71
2022/05/17 05:32:41;;;;;;;7.50;4.45;;;25.90;93.60;;;;;;5054161;28;20059;-71
2022/05/17 05:35:10;;;;;;;10.35;5.72;;;26.00;93.40;;;;;;5051712;28;20059;-70
2022/05/17 05:37:38;;;;;;;11.95;5.28;;;26.20;92.70;;;;;;5053692;28;20059;-71
2022/05/17 05:40:07;;;;;;;8.02;4.43;;;26.30;92.00;;;;;;5036621;28;20505;-71
2022/05/17 05:42:34;;;;;;;8.50;5.28;;;26.40;91.20;;;;;;5069914;28;20052;-71
2022/05/17 05:45:04;;;;;;;9.45;6.35;;;26.50;90.90;;;;;;5020218;28;20102;-71
2022/05/17 05:47:32;;;;;;;10.27;4.90;;;26.70;90.50;;;;;;5070781;28;20095;-71
2022/05/17 05:50:00;;;;;;;7.03;4.53;;;26.80;90.20;;;;;;5053458;28;20040;-71
2022/05/17 05:52:29;;;;;;;15.10;4.93;;;26.90;90.00;;;;;;5070400;28;20048;-71
2022/05/17 05:55:00;;;;;;;8.18;5.47;;;27.10;89.50;;;;;;5053060;28;20044;-71
2022/05/17 05:57:28;;;;;;;10.52;5.28;;;27.20;88.80;;;;;;5053191;28;20040;-71
2022/05/17 05:59:56;;;;;;;11.75;6.53;;;27.40;88.90;;;;;;5053047;28;20051;-72
2022/05/17 06:02:24;;;;;;;8.98;5.85;;;27.50;88.10;;;;;;5036132;28;20045;-71
2022/05/17 06:04:52;;;;;;;8.18;5.85;;;27.70;87.70;;;;;;5052474;28;20063;-72
2022/05/17 06:07:20;;;;;;;13.00;5.63;;;27.80;87.20;;;;;;5035787;28;20045;-71
2022/05/17 06:09:47;;;;;;;7.40;5.15;;;27.90;86.80;;;;;;5036346;28;20056;-71
2022/05/17 06:12:15;;;;;;;7.85;4.70;;;28.00;86.60;;;;;;5052390;28;20545;-71
2022/05/17 06:14:42;;;;;;;8.27;5.28;;;28.10;86.30;;;;;;5068725;28;20037;-71
2022/05/17 06:17:10;;;;;;;9.50;5.60;;;28.20;85.70;;;;;;5052648;28;20098;-71
2022/05/17 06:19:37;;;;;;;12.60;5.22;;;28.30;85.20;;;;;;5069053;28;20048;-71
2022/05/17 06:22:05;;;;;;;9.30;5.75;;;28.30;85.20;;;;;;5052752;28;20044;-71
2022/05/17 06:24:35;;;;;;;8.35;5.38;;;28.40;85.50;;;;;;5071258;28;20048;-71
2022/05/17 06:27:02;;;;;;;11.80;5.25;;;28.50;84.30;;;;;;5055733;28;20532;-72
2022/05/17 06:29:30;;;;;;;10.23;5.88;;;28.50;83.70;;;;;;5072522;28;20074;-72
2022/05/17 06:31:57;;;;;;;10.10;5.65;;;28.60;83.20;;;;;;5056291;28;20054;-71
2022/05/17 06:34:25;;;;;;;10.70;5.30;;;28.70;82.90;;;;;;5055632;28;20063;-71
2022/05/17 06:36:53;;;;;;;10.13;5.20;;;28.80;82.40;;;;;;5056010;28;20097;-71
2022/05/17 06:39:20;;;;;;;7.93;5.43;;;28.90;83.00;;;;;;5055643;28;20156;-71
2022/05/17 06:41:48;;;;;;;12.32;6.03;;;29.00;82.30;;;;;;5055523;28;20051;-71
2022/05/17 06:44:16;;;;;;;9.05;4.90;;;29.10;81.90;;;;;;5056145;28;20054;-71
2022/05/17 06:46:44;;;;;;;11.10;4.93;;;29.20;81.30;;;;;;5090494;28;20040;-72
2022/05/17 06:49:11;;;;;;;6.90;4.93;;;29.20;80.90;;;;;;5072525;28;20506;-71
2022/05/17 06:51:41;;;;;;;7.10;4.80;;;29.30;81.10;;;;;;5054875;28;20087;-71
2022/05/17 06:54:09;;;;;;;8.55;4.65;;;29.30;80.80;;;;;;5055492;28;20044;-72
2022/05/17 06:56:37;;;;;;;11.82;4.80;;;29.40;80.70;;;;;;5039100;28;20043;-71
2022/05/17 06:59:06;;;;;;;8.50;5.68;;;29.50;80.50;;;;;;5072648;28;20040;-71
2022/05/17 07:01:34;;;;;;;9.57;5.95;;;29.60;80.20;;;;;;5055335;28;20044;-71
2022/05/17 07:04:03;;;;;;;5.95;4.78;;;29.70;80.00;;;;;;5072297;28;20563;-72
2022/05/17 07:06:31;;;;;;;9.68;6.13;;;29.70;79.30;;;;;;5072564;28;20047;-71
2022/05/17 07:08:58;;;;;;;15.55;5.53;;;29.70;78.80;;;;;;5055134;28;20056;-71
2022/05/17 07:14:12;;;;;;;;;;;29.80;79.10;;;;;;5072708;28;20075;-71
2022/05/17 07:16:39;;;;;;;6.72;4.72;;;29.80;78.50;;;;;;5038537;28;19962;-72
2022/05/17 07:19:07;;;;;;;9.50;5.88;;;30.00;78.50;;;;;;5068237;28;20437;-71
2022/05/17 07:21:51;;;;;;;9.35;5.25;;;30.10;78.00;;;;;;5051854;28;20853;-71
2022/05/17 07:24:19;;;;;;;7.95;5.00;;;30.20;77.60;;;;;;5071548;28;20056;-71
2022/05/17 07:26:46;;;;;;;9.15;4.68;;;30.20;77.50;;;;;;5039720;28;20048;-71
2022/05/17 07:29:26;;;;;;;6.20;5.05;;;30.30;77.50;;;;;;5056036;28;20044;-71
2022/05/17 07:31:54;;;;;;;8.32;5.13;;;30.30;77.50;;;;;;5071690;28;20502;-71
2022/05/17 07:34:23;;;;;;;8.90;5.20;;;30.40;77.50;;;;;;5038427;28;20044;-72
2022/05/17 07:36:51;;;;;;;8.27;5.40;;;30.30;77.80;;;;;;5055651;28;20041;-71
2022/05/17 07:39:19;;;;;;;7.97;4.40;;;30.30;78.10;;;;;;5055382;28;20043;-71
2022/05/17 07:41:48;;;;;;;12.10;5.25;;;30.20;77.90;;;;;;5038471;28;20076;-71
2022/05/17 07:44:15;;;;;;;9.25;4.63;;;30.20;77.90;;;;;;5055305;28;20110;-72
2022/05/17 07:46:43;;;;;;;7.90;4.90;;;30.30;77.80;;;;;;5038727;28;20574;-71
2022/05/17 07:49:10;;;;;;;10.35;5.10;;;30.40;77.30;;;;;;5055735;28;20137;-71
2022/05/17 07:51:38;;;;;;;11.35;4.80;;;30.40;77.10;;;;;;5072148;28;20102;-72
2022/05/17 07:54:06;;;;;;;11.27;5.30;;;30.20;76.50;;;;;;5071899;28;20045;-71
2022/05/17 07:56:34;;;;;;;9.07;5.13;;;30.00;76.40;;;;;;5054840;28;20560;-71
2022/05/17 07:59:01;;;;;;;6.20;4.88;;;30.00;76.90;;;;;;5072724;28;20049;-71
2022/05/17 08:01:29;;;;;;;14.23;6.22;;;30.00;76.90;;;;;;5055112;28;20569;-74
2022/05/17 08:03:57;;;;;;;8.70;4.93;;;30.20;76.70;;;;;;5071524;28;20502;-71
2022/05/17 08:06:24;;;;;;;7.72;4.45;;;30.30;76.10;;;;;;5054341;28;20041;-71
2022/05/17 08:08:52;;;;;;;7.78;5.35;;;30.50;75.80;;;;;;5071373;28;20388;-71
2022/05/17 08:11:19;;;;;;;6.22;4.53;;;30.60;75.30;;;;;;5071603;28;20040;-71
2022/05/17 08:13:47;;;;;;;11.57;5.20;;;30.40;75.50;;;;;;5036587;28;20131;-71
2022/05/17 08:16:30;;;;;;;9.15;4.47;;;30.40;75.70;;;;;;5060129;28;20046;-71
2022/05/17 08:18:58;;;;;;;8.75;5.13;;;30.40;75.50;;;;;;5074788;28;20474;-71
2022/05/17 08:21:25;;;;;;;9.90;4.88;;;30.50;75.70;;;;;;5074127;28;20816;-71
2022/05/17 08:23:53;;;;;;;9.23;4.30;;;30.60;75.40;;;;;;5041729;28;20040;-72
2022/05/17 08:29:06;;;;;;;;;;;30.60;75.70;;;;;;5058655;28;20470;-72
2022/05/17 08:31:34;;;;;;;8.68;4.25;;;30.80;76.00;;;;;;5092975;28;19928;-72
2022/05/17 08:34:02;;;;;;;7.85;4.32;;;30.90;75.50;;;;;;5058187;28;20501;-72
2022/05/17 08:36:29;;;;;;;8.93;4.80;;;31.00;74.90;;;;;;5074555;28;20040;-71
2022/05/17 08:38:57;;;;;;;7.57;4.70;;;31.00;75.10;;;;;;5057989;28;20086;-72
2022/05/17 08:41:55;;;;;;;8.65;4.50;;;31.10;74.90;;;;;;5057445;28;20139;-72
2022/05/17 08:44:50;;;;;;;6.68;4.43;;;31.20;74.80;;;;;;5058403;28;20048;-71
2022/05/17 08:47:29;;;;;;;11.77;4.43;;;31.20;74.60;;;;;;5074278;28;20093;-71
2022/05/17 08:50:18;;;;;;;8.00;5.53;;;31.20;74.10;;;;;;5076955;28;20510;-71
2022/05/17 08:52:46;;;;;;;7.60;3.72;;;31.40;74.30;;;;;;5074436;28;20052;-71
2022/05/17 08:55:40;;;;;;;7.90;4.35;;;31.40;74.10;;;;;;5074433;28;20393;-70
2022/05/17 08:58:34;;;;;;;6.95;4.05;;;31.30;73.60;;;;;;5074129;28;20090;-71
2022/05/17 09:01:07;;;;;;;7.07;4.07;;;31.20;74.00;;;;;;5056192;28;20048;-68
2022/05/17 09:03:35;;;;;;;5.78;3.85;;;31.20;73.60;;;;;;5074077;28;20055;-68
2022/05/17 09:06:10;;;;;;;7.43;3.80;;;31.10;73.90;;;;;;5055275;28;20547;-68
2022/05/17 09:08:46;;;;;;;7.40;3.90;;;31.20;74.30;;;;;;5074045;28;20105;-69
2022/05/17 09:11:54;;;;;;;9.02;5.55;;;30.90;75.50;;;;;;5057044;28;20567;-69
2022/05/17 09:14:29;;;;;;;7.55;4.38;;;30.90;75.50;;;;;;5064786;28;20489;-69
2022/05/17 09:17:01;;;;;;;6.40;4.13;;;30.90;74.80;;;;;;5073888;28;20040;-69
2022/05/17 09:19:29;;;;;;;6.65;4.53;;;31.00;74.70;;;;;;5056740;28;20036;-71
2022/05/17 09:22:00;;;;;;;11.63;4.60;;;31.00;74.80;;;;;;5073945;28;20044;-68
2022/05/17 09:24:40;;;;;;;6.82;4.30;;;30.90;74.50;;;;;;5073408;28;20040;-69
2022/05/17 09:27:09;;;;;;;6.28;3.72;;;31.10;74.90;;;;;;5073586;28;20051;-69
2022/05/17 09:29:39;;;;;;;8.98;3.78;;;30.50;73.50;;;;;;5057172;28;20075;-69
2022/05/17 09:32:11;;;;;;;7.25;4.13;;;30.50;75.00;;;;;;5057284;28;20110;-69
2022/05/17 09:34:45;;;;;;;7.45;4.07;;;30.40;76.30;;;;;;5073580;28;20054;-69
2022/05/17 09:37:19;;;;;;;8.63;4.35;;;30.50;76.00;;;;;;5073416;28;20497;-68
2022/05/17 09:39:52;;;;;;;6.97;3.50;;;30.70;76.40;;;;;;5072576;28;20040;-69
2022/05/17 09:42:47;;;;;;;5.78;3.42;;;30.60;76.70;;;;;;5072926;28;20578;-68
2022/05/17 09:45:18;;;;;;;6.40;3.97;;;30.70;76.40;;;;;;5072855;28;20044;-68
2022/05/17 09:47:57;;;;;;;6.32;3.78;;;30.70;76.40;;;;;;5089877;28;20044;-68
2022/05/17 09:53:15;;;;;;;9.75;4.68;;;30.30;76.70;;;;;;5091592;28;20044;-69
2022/05/17 09:55:56;;;;;;;10.40;3.75;;;30.40;76.90;;;;;;5071890;28;20040;-68
2022/05/17 09:58:50;;;;;;;5.18;3.75;;;30.50;76.80;;;;;;5070268;28;20558;-69
2022/05/17 10:01:25;;;;;;;4.60;3.60;;;30.50;76.70;;;;;;5071154;28;20060;-69
2022/05/17 10:04:11;;;;;;;4.82;3.22;;;30.50;76.80;;;;;;5054743;28;20147;-69
2022/05/17 10:06:45;;;;;;;4.55;3.60;;;30.70;76.70;;;;;;5055775;28;20567;-71
2022/05/17 10:09:30;;;;;;;7.65;3.95;;;30.70;76.80;;;;;;5055835;28;20394;-69
2022/05/17 10:12:05;;;;;;;7.25;3.40;;;30.70;76.80;;;;;;5072408;28;20048;-69
2022/05/17 10:14:43;;;;;;;6.68;4.22;;;30.60;76.70;;;;;;5071778;28;20442;-71
2022/05/17 10:17:32;;;;;;;5.95;3.80;;;30.40;76.50;;;;;;5071995;28;20039;-68
2022/05/17 10:20:15;;;;;;;5.43;3.60;;;30.20;77.00;;;;;;5072609;28;20624;-69
2022/05/17 10:23:07;;;;;;;7.07;3.78;;;30.10;76.90;;;;;;5055915;28;20048;-69
2022/05/17 10:25:45;;;;;;;6.18;3.58;;;30.10;76.80;;;;;;5055519;28;20054;-68
2022/05/17 10:28:16;;;;;;;5.40;4.38;;;30.00;77.00;;;;;;5072204;28;20048;-68
2022/05/17 10:30:53;;;;;;;9.00;3.80;;;30.10;76.70;;;;;;5072435;28;20563;-70
2022/05/17 10:33:39;;;;;;;6.28;4.05;;;30.10;76.30;;;;;;5072230;28;20680;-68
2022/05/17 10:36:25;;;;;;;6.75;3.85;;;30.20;76.40;;;;;;5071948;28;20040;-68
2022/05/17 10:39:13;;;;;;;6.38;3.53;;;30.30;76.10;;;;;;5038988;28;20075;-69
2022/05/17 10:41:41;;;;;;;7.28;4.45;;;30.40;76.10;;;;;;5089922;28;20047;-69
2022/05/17 10:44:15;;;;;;;5.20;3.38;;;30.50;75.80;;;;;;5089459;28;20044;-68
2022/05/17 10:46:48;;;;;;;6.63;3.88;;;30.60;75.70;;;;;;5072094;28;20048;-69
2022/05/17 10:49:29;;;;;;;6.07;4.00;;;30.50;75.50;;;;;;5072126;28;20105;-67
2022/05/17 10:52:08;;;;;;;5.88;3.15;;;30.40;75.20;;;;;;5054800;28;20047;-69
2022/05/17 10:54:53;;;;;;;6.20;3.50;;;30.50;75.10;;;;;;5055352;28;20055;-69
2022/05/17 10:57:36;;;;;;;6.22;4.03;;;30.50;75.30;;;;;;5069413;28;20098;-69
2022/05/17 11:00:09;;;;;;;8.93;4.05;;;30.30;76.30;;;;;;5044212;28;20055;-69
2022/05/17 11:02:52;;;;;;;6.10;4.72;;;30.30;75.90;;;;;;5042707;28;20055;-68
2022/05/17 11:06:08;;;;;;;8.27;3.85;;;30.20;75.80;;;;;;5065537;28;20123;-68
2022/05/17 11:08:55;;;;;;;4.72;3.60;;;30.40;75.90;;;;;;5049417;28;20049;-68
2022/05/17 11:11:31;;;;;;;6.93;4.18;;;30.30;75.30;;;;;;5039081;28;20080;-69
2022/05/17 11:14:02;;;;;;;9.75;4.22;;;30.40;75.30;;;;;;5022478;28;20410;-69
2022/05/17 11:16:56;;;;;;;5.10;4.40;;;30.30;75.30;;;;;;5055181;28;20491;-69
2022/05/17 11:19:28;;;;;;;5.45;3.72;;;30.20;74.70;;;;;;5072882;28;20062;-69
2022/05/17 11:22:03;;;;;;;5.57;4.55;;;30.10;74.20;;;;;;5022733;28;20052;-69
2022/05/17 11:24:55;;;;;;;4.88;3.42;;;30.10;74.70;;;;;;5038450;28;20056;-68
2022/05/17 11:27:36;;;;;;;5.15;3.80;;;30.10;74.30;;;;;;5021691;28;20049;-69
2022/05/17 11:30:30;;;;;;;7.72;3.78;;;30.10;74.20;;;;;;5056480;28;20057;-70
2022/05/17 11:33:21;;;;;;;8.52;3.78;;;30.10;74.20;;;;;;5050354;28;20045;-67
2022/05/17 11:35:54;;;;;;;6.55;3.72;;;30.20;74.40;;;;;;5038543;28;20053;-69
2022/05/17 11:38:37;;;;;;;9.20;4.03;;;30.20;73.80;;;;;;5056220;28;20048;-70
2022/05/17 11:41:21;;;;;;;6.38;3.97;;;30.40;73.20;;;;;;5055629;28;20041;-68
2022/05/17 11:44:10;;;;;;;7.30;3.55;;;30.30;72.90;;;;;;5055618;28;20048;-69
2022/05/17 11:46:50;;;;;;;7.68;3.92;;;30.20;73.70;;;;;;5045785;28;20676;-70
2022/05/17 11:49:18;;;;;;;11.18;3.90;;;30.20;73.70;;;;;;5073325;28;20098;-69
2022/05/17 11:52:13;;;;;;;10.82;8.40;;;30.30;73.30;;;;;;5038948;28;20060;-68
2022/05/17 11:54:45;;;;;;;9.52;5.60;;;30.30;72.30;;;;;;5053435;28;20052;-70
2022/05/17 11:57:33;;;;;;;6.57;3.33;;;30.30;72.20;;;;;;5089599;28;20405;-69
2022/05/17 12:00:07;;;;;;;7.65;3.88;;;30.20;72.70;;;;;;5079414;28;20048;-69
2022/05/17 12:02:57;;;;;;;7.15;3.08;;;30.20;72.50;;;;;;5058653;28;20044;-67
2022/05/17 12:05:37;;;;;;;6.03;3.25;;;30.20;72.10;;;;;;5071424;28;20068;-67
2022/05/17 12:08:26;;;;;;;12.88;7.70;;;30.10;72.10;;;;;;5061917;28;20053;-70
2022/05/17 12:11:20;;;;;;;7.00;4.57;;;30.00;71.50;;;;;;5064509;28;20053;-68
2022/05/17 12:13:51;;;;;;;6.00;3.75;;;30.00;72.10;;;;;;5064146;28;20070;-67
2022/05/17 12:16:26;;;;;;;12.88;8.68;;;30.10;71.40;;;;;;5055477;28;20044;-68
2022/05/17 12:19:06;;;;;;;15.60;13.23;;;30.00;72.20;;;;;;5065929;28;20052;-68
2022/05/17 12:21:49;;;;;;;10.25;8.88;;;30.00;72.50;;;;;;5073343;28;20079;-68
2022/05/17 12:24:38;;;;;;;5.95;3.88;;;29.70;73.00;;;;;;5047510;28;20059;-67
2022/05/17 12:27:23;;;;;;;4.70;4.05;;;29.70;72.40;;;;;;5041608;28;20053;-68
2022/05/17 12:33:05;;;;;;;5.75;3.17;;;29.50;73.10;;;;;;5028626;28;20056;-68
2022/05/17 12:35:33;;;;;;;;;;;29.50;72.60;;;;;;5063485;28;20055;-69
2022/05/17 12:38:00;;;;;;;5.13;3.33;;;29.50;73.00;;;;;;5080727;28;20440;-68
2022/05/17 12:43:29;;;;;;;5.35;2.83;;;29.50;72.10;;;;;;5083874;28;20127;-69
2022/05/17 12:46:14;;;;;;;5.90;3.33;;;29.50;72.70;;;;;;5072405;28;20044;-68
2022/05/17 12:48:42;;;;;;;4.47;3.42;;;29.50;72.20;;;;;;5083748;28;20055;-69
2022/05/17 12:51:10;;;;;;;5.00;3.15;;;29.60;72.50;;;;;;5037216;28;20476;-70
2022/05/17 12:53:43;;;;;;;5.38;3.08;;;29.60;72.40;;;;;;5048049;28;20043;-68
2022/05/17 12:56:12;;;;;;;6.20;3.22;;;29.50;71.90;;;;;;5071978;28;20041;-69
2022/05/17 12:58:58;;;;;;;5.00;3.25;;;29.50;72.20;;;;;;5062381;28;20480;-69
2022/05/17 13:01:41;;;;;;;5.07;2.70;;;29.50;72.00;;;;;;5072732;28;20044;-69
2022/05/17 13:04:13;;;;;;;4.63;3.15;;;29.50;71.70;;;;;;5061393;28;20060;-69
2022/05/17 13:06:47;;;;;;;4.20;3.08;;;29.40;71.00;;;;;;5072768;28;20510;-68
2022/05/17 13:09:21;;;;;;;6.10;2.97;;;29.40;71.70;;;;;;5087657;28;20379;-68
2022/05/17 13:11:50;;;;;;;8.05;3.22;;;29.30;72.40;;;;;;5056120;28;20401;-69
2022/05/17 13:14:27;;;;;;;4.82;3.33;;;29.30;72.60;;;;;;5062750;28;20059;-69
2022/05/17 13:17:06;;;;;;;4.25;3.60;;;29.30;73.10;;;;;;5055812;28;20044;-69
2022/05/17 13:19:41;;;;;;;7.13;3.15;;;29.40;72.90;;;;;;5061035;28;20056;-68
2022/05/17 13:22:09;;;;;;;6.50;3.45;;;29.30;72.50;;;;;;5033996;28;20058;-68
2022/05/17 13:24:46;;;;;;;4.40;3.15;;;29.30;72.50;;;;;;5062534;28;20538;-68
2022/05/17 13:27:30;;;;;;;4.55;3.47;;;29.30;72.10;;;;;;5043075;28;20056;-70